sensor_id;sensor_type;location;lat;lon;timestamp;P1;durP1;ratioP1;P2;durP2;ratioP2
47161;SDS011;32921;53.256;8.198;2022-11-15T00:00:27;46.28;;;29.45;;
47161;SDS011;32921;53.256;8.198;2022-11-15T00:02:53;52.70;;;31.75;;
47161;SDS011;32921;53.256;8.198;2022-11-15T00:05:19;49.90;;;32.55;;
47161;SDS011;32921;53.256;8.198;2022-11-15T00:07:44;53.00;;;33.75;;
47161;SDS011;32921;53.256;8.198;2022-11-15T00:10:11;53.03;;;33.03;;
47161;SDS011;32921;53.256;8.198;2022-11-15T00:12:37;54.58;;;33.88;;
47161;SDS011;32921;53.256;8.198;2022-11-15T00:15:03;55.83;;;32.90;;
47161;SDS011;32921;53.256;8.198;2022-11-15T00:17:29;57.72;;;34.22;;
47161;SDS011;32921;53.256;8.198;2022-11-15T00:19:54;56.92;;;34.15;;
47161;SDS011;32921;53.256;8.198;2022-11-15T00:22:20;56.70;;;33.58;;
47161;SDS011;32921;53.256;8.198;2022-11-15T00:24:46;56.65;;;34.15;;
47161;SDS011;32921;53.256;8.198;2022-11-15T00:27:11;55.85;;;34.53;;
47161;SDS011;32921;53.256;8.198;2022-11-15T00:29:37;54.58;;;31.38;;
47161;SDS011;32921;53.256;8.198;2022-11-15T00:32:03;56.65;;;32.97;;
47161;SDS011;32921;53.256;8.198;2022-11-15T00:34:30;57.65;;;34.47;;
47161;SDS011;32921;53.256;8.198;2022-11-15T00:36:55;59.95;;;33.85;;
47161;SDS011;32921;53.256;8.198;2022-11-15T00:39:21;59.25;;;33.60;;
47161;SDS011;32921;53.256;8.198;2022-11-15T00:41:46;63.45;;;35.38;;
47161;SDS011;32921;53.256;8.198;2022-11-15T00:44:12;54.92;;;33.28;;
47161;SDS011;32921;53.256;8.198;2022-11-15T00:46:37;60.88;;;33.47;;
47161;SDS011;32921;53.256;8.198;2022-11-15T00:49:03;54.63;;;32.05;;
47161;SDS011;32921;53.256;8.198;2022-11-15T00:51:29;58.63;;;33.63;;
47161;SDS011;32921;53.256;8.198;2022-11-15T00:53:55;58.25;;;33.70;;
47161;SDS011;32921;53.256;8.198;2022-11-15T00:56:20;60.35;;;34.50;;
47161;SDS011;32921;53.256;8.198;2022-11-15T00:58:46;62.47;;;34.78;;
47161;SDS011;32921;53.256;8.198;2022-11-15T01:01:12;60.72;;;34.83;;
47161;SDS011;32921;53.256;8.198;2022-11-15T01:03:39;58.33;;;34.10;;
47161;SDS011;32921;53.256;8.198;2022-11-15T01:06:06;59.15;;;33.80;;
47161;SDS011;32921;53.256;8.198;2022-11-15T01:08:32;61.50;;;33.22;;
47161;SDS011;32921;53.256;8.198;2022-11-15T01:11:06;54.17;;;33.58;;
47161;SDS011;32921;53.256;8.198;2022-11-15T01:13:33;56.00;;;33.28;;
47161;SDS011;32921;53.256;8.198;2022-11-15T01:16:10;61.78;;;34.22;;
47161;SDS011;32921;53.256;8.198;2022-11-15T01:18:38;58.72;;;33.22;;
47161;SDS011;32921;53.256;8.198;2022-11-15T01:21:05;60.88;;;33.90;;
47161;SDS011;32921;53.256;8.198;2022-11-15T01:23:35;59.38;;;34.38;;
47161;SDS011;32921;53.256;8.198;2022-11-15T01:26:02;61.88;;;34.08;;
47161;SDS011;32921;53.256;8.198;2022-11-15T01:28:30;62.08;;;34.40;;
47161;SDS011;32921;53.256;8.198;2022-11-15T01:31:00;62.85;;;34.17;;
47161;SDS011;32921;53.256;8.198;2022-11-15T01:33:27;65.20;;;35.70;;
47161;SDS011;32921;53.256;8.198;2022-11-15T01:35:53;66.70;;;35.90;;
47161;SDS011;32921;53.256;8.198;2022-11-15T01:38:19;63.53;;;35.80;;
47161;SDS011;32921;53.256;8.198;2022-11-15T01:40:45;63.13;;;34.70;;
47161;SDS011;32921;53.256;8.198;2022-11-15T01:45:46;61.58;;;34.97;;
47161;SDS011;32921;53.256;8.198;2022-11-15T01:48:28;64.95;;;37.33;;
47161;SDS011;32921;53.256;8.198;2022-11-15T01:50:57;67.13;;;36.05;;
47161;SDS011;32921;53.256;8.198;2022-11-15T01:53:27;62.15;;;35.92;;
47161;SDS011;32921;53.256;8.198;2022-11-15T01:55:56;64.45;;;36.50;;
47161;SDS011;32921;53.256;8.198;2022-11-15T01:58:23;62.70;;;35.70;;
47161;SDS011;32921;53.256;8.198;2022-11-15T02:00:49;68.97;;;36.78;;
47161;SDS011;32921;53.256;8.198;2022-11-15T02:03:16;63.97;;;37.58;;
47161;SDS011;32921;53.256;8.198;2022-11-15T02:05:42;67.22;;;37.45;;
47161;SDS011;32921;53.256;8.198;2022-11-15T02:08:08;66.45;;;37.08;;
47161;SDS011;32921;53.256;8.198;2022-11-15T02:10:44;68.03;;;36.25;;
47161;SDS011;32921;53.256;8.198;2022-11-15T02:13:11;77.22;;;37.83;;
47161;SDS011;32921;53.256;8.198;2022-11-15T02:15:40;69.22;;;37.33;;
47161;SDS011;32921;53.256;8.198;2022-11-15T02:18:16;73.20;;;37.92;;
47161;SDS011;32921;53.256;8.198;2022-11-15T02:35:43;69.00;;;38.05;;
47161;SDS011;32921;53.256;8.198;2022-11-15T02:40:57;64.53;;;36.22;;
47161;SDS011;32921;53.256;8.198;2022-11-15T02:43:29;65.47;;;36.58;;
47161;SDS011;32921;53.256;8.198;2022-11-15T02:49:29;59.88;;;35.75;;
47161;SDS011;32921;53.256;8.198;2022-11-15T02:51:57;58.22;;;34.13;;
47161;SDS011;32921;53.256;8.198;2022-11-15T02:54:23;57.10;;;33.72;;
47161;SDS011;32921;53.256;8.198;2022-11-15T02:56:52;57.72;;;34.10;;
47161;SDS011;32921;53.256;8.198;2022-11-15T02:59:33;54.67;;;32.85;;
47161;SDS011;32921;53.256;8.198;2022-11-15T03:04:52;53.90;;;32.90;;
47161;SDS011;32921;53.256;8.198;2022-11-15T03:07:33;51.17;;;31.70;;
47161;SDS011;32921;53.256;8.198;2022-11-15T03:10:26;50.72;;;31.95;;
47161;SDS011;32921;53.256;8.198;2022-11-15T03:13:21;53.42;;;32.80;;
47161;SDS011;32921;53.256;8.198;2022-11-15T03:16:04;47.55;;;29.55;;
47161;SDS011;32921;53.256;8.198;2022-11-15T03:18:41;48.33;;;29.73;;
47161;SDS011;32921;53.256;8.198;2022-11-15T03:21:10;46.90;;;28.45;;
47161;SDS011;32921;53.256;8.198;2022-11-15T03:23:38;47.70;;;29.58;;
47161;SDS011;32921;53.256;8.198;2022-11-15T03:26:05;43.10;;;28.05;;
47161;SDS011;32921;53.256;8.198;2022-11-15T03:28:36;45.58;;;28.25;;
47161;SDS011;32921;53.256;8.198;2022-11-15T03:31:11;42.63;;;27.70;;
47161;SDS011;32921;53.256;8.198;2022-11-15T03:33:58;41.63;;;27.30;;
47161;SDS011;32921;53.256;8.198;2022-11-15T03:36:25;44.63;;;27.42;;
47161;SDS011;32921;53.256;8.198;2022-11-15T03:38:56;42.72;;;26.75;;
47161;SDS011;32921;53.256;8.198;2022-11-15T03:41:28;40.20;;;26.42;;
47161;SDS011;32921;53.256;8.198;2022-11-15T03:44:04;42.13;;;24.02;;
47161;SDS011;32921;53.256;8.198;2022-11-15T03:46:51;41.20;;;24.92;;
47161;SDS011;32921;53.256;8.198;2022-11-15T03:49:28;39.25;;;25.35;;
47161;SDS011;32921;53.256;8.198;2022-11-15T03:51:59;40.42;;;26.60;;
47161;SDS011;32921;53.256;8.198;2022-11-15T03:54:26;41.55;;;25.10;;
47161;SDS011;32921;53.256;8.198;2022-11-15T03:56:52;45.60;;;25.70;;
47161;SDS011;32921;53.256;8.198;2022-11-15T03:59:18;45.33;;;27.20;;
47161;SDS011;32921;53.256;8.198;2022-11-15T04:01:43;42.22;;;26.40;;
47161;SDS011;32921;53.256;8.198;2022-11-15T04:04:09;48.35;;;25.60;;
47161;SDS011;32921;53.256;8.198;2022-11-15T04:06:34;45.60;;;25.65;;
47161;SDS011;32921;53.256;8.198;2022-11-15T04:09:00;49.33;;;26.48;;
47161;SDS011;32921;53.256;8.198;2022-11-15T04:11:25;44.00;;;24.42;;
47161;SDS011;32921;53.256;8.198;2022-11-15T04:13:51;44.47;;;27.40;;
47161;SDS011;32921;53.256;8.198;2022-11-15T04:16:16;42.67;;;25.35;;
47161;SDS011;32921;53.256;8.198;2022-11-15T04:18:42;43.25;;;25.45;;
47161;SDS011;32921;53.256;8.198;2022-11-15T04:21:08;43.55;;;25.42;;
47161;SDS011;32921;53.256;8.198;2022-11-15T04:23:52;41.10;;;25.23;;
47161;SDS011;32921;53.256;8.198;2022-11-15T04:26:18;43.78;;;24.02;;
47161;SDS011;32921;53.256;8.198;2022-11-15T04:28:46;46.20;;;26.42;;
47161;SDS011;32921;53.256;8.198;2022-11-15T04:31:30;40.92;;;25.30;;
47161;SDS011;32921;53.256;8.198;2022-11-15T04:33:55;40.53;;;24.48;;
47161;SDS011;32921;53.256;8.198;2022-11-15T04:36:21;39.10;;;24.52;;
47161;SDS011;32921;53.256;8.198;2022-11-15T04:39:05;41.25;;;25.02;;
47161;SDS011;32921;53.256;8.198;2022-11-15T04:41:31;38.10;;;23.63;;
47161;SDS011;32921;53.256;8.198;2022-11-15T04:43:57;39.67;;;23.15;;
47161;SDS011;32921;53.256;8.198;2022-11-15T04:46:23;37.03;;;23.63;;
47161;SDS011;32921;53.256;8.198;2022-11-15T04:48:49;37.88;;;23.33;;
47161;SDS011;32921;53.256;8.198;2022-11-15T04:51:15;37.78;;;22.38;;
47161;SDS011;32921;53.256;8.198;2022-11-15T04:53:41;38.45;;;22.80;;
47161;SDS011;32921;53.256;8.198;2022-11-15T04:56:07;31.48;;;18.90;;
47161;SDS011;32921;53.256;8.198;2022-11-15T04:58:32;34.17;;;22.10;;
47161;SDS011;32921;53.256;8.198;2022-11-15T05:01:05;42.40;;;26.13;;
47161;SDS011;32921;53.256;8.198;2022-11-15T05:03:43;51.42;;;28.50;;
47161;SDS011;32921;53.256;8.198;2022-11-15T05:06:28;37.08;;;23.98;;
47161;SDS011;32921;53.256;8.198;2022-11-15T05:08:54;35.63;;;21.88;;
47161;SDS011;32921;53.256;8.198;2022-11-15T05:11:20;37.63;;;21.27;;
47161;SDS011;32921;53.256;8.198;2022-11-15T05:13:46;36.78;;;20.70;;
47161;SDS011;32921;53.256;8.198;2022-11-15T05:16:12;34.42;;;20.95;;
47161;SDS011;32921;53.256;8.198;2022-11-15T05:18:38;31.35;;;20.80;;
47161;SDS011;32921;53.256;8.198;2022-11-15T05:21:07;31.77;;;20.27;;
47161;SDS011;32921;53.256;8.198;2022-11-15T05:23:41;28.73;;;19.70;;
47161;SDS011;32921;53.256;8.198;2022-11-15T05:26:07;29.80;;;18.80;;
47161;SDS011;32921;53.256;8.198;2022-11-15T05:28:33;27.95;;;19.23;;
47161;SDS011;32921;53.256;8.198;2022-11-15T05:31:07;29.45;;;19.10;;
47161;SDS011;32921;53.256;8.198;2022-11-15T05:33:37;27.58;;;19.60;;
47161;SDS011;32921;53.256;8.198;2022-11-15T05:36:09;31.45;;;19.38;;
47161;SDS011;32921;53.256;8.198;2022-11-15T05:38:56;28.02;;;18.90;;
47161;SDS011;32921;53.256;8.198;2022-11-15T05:41:24;32.35;;;18.73;;
47161;SDS011;32921;53.256;8.198;2022-11-15T05:43:53;31.67;;;18.17;;
47161;SDS011;32921;53.256;8.198;2022-11-15T05:46:19;31.30;;;18.77;;
47161;SDS011;32921;53.256;8.198;2022-11-15T05:48:45;32.50;;;17.90;;
47161;SDS011;32921;53.256;8.198;2022-11-15T05:51:14;28.58;;;18.67;;
47161;SDS011;32921;53.256;8.198;2022-11-15T05:53:41;35.47;;;20.67;;
47161;SDS011;32921;53.256;8.198;2022-11-15T05:56:07;28.17;;;18.65;;
47161;SDS011;32921;53.256;8.198;2022-11-15T05:58:34;32.05;;;18.42;;
47161;SDS011;32921;53.256;8.198;2022-11-15T06:01:01;29.42;;;18.42;;
47161;SDS011;32921;53.256;8.198;2022-11-15T06:03:27;29.90;;;17.98;;
47161;SDS011;32921;53.256;8.198;2022-11-15T06:05:53;28.48;;;18.35;;
47161;SDS011;32921;53.256;8.198;2022-11-15T06:08:19;27.05;;;18.10;;
47161;SDS011;32921;53.256;8.198;2022-11-15T06:10:45;28.90;;;17.08;;
47161;SDS011;32921;53.256;8.198;2022-11-15T06:13:10;31.35;;;21.02;;
47161;SDS011;32921;53.256;8.198;2022-11-15T06:15:36;38.45;;;27.30;;
47161;SDS011;32921;53.256;8.198;2022-11-15T06:18:02;28.85;;;17.80;;
47161;SDS011;32921;53.256;8.198;2022-11-15T06:20:28;27.90;;;18.02;;
47161;SDS011;32921;53.256;8.198;2022-11-15T06:22:58;27.77;;;18.52;;
47161;SDS011;32921;53.256;8.198;2022-11-15T06:25:25;26.88;;;17.67;;
47161;SDS011;32921;53.256;8.198;2022-11-15T06:27:51;32.05;;;19.52;;
47161;SDS011;32921;53.256;8.198;2022-11-15T06:30:21;27.08;;;17.20;;
47161;SDS011;32921;53.256;8.198;2022-11-15T06:32:47;29.85;;;18.13;;
47161;SDS011;32921;53.256;8.198;2022-11-15T06:35:13;28.90;;;18.20;;
47161;SDS011;32921;53.256;8.198;2022-11-15T06:37:39;27.27;;;20.20;;
47161;SDS011;32921;53.256;8.198;2022-11-15T06:40:05;33.58;;;22.63;;
47161;SDS011;32921;53.256;8.198;2022-11-15T06:42:32;22.90;;;16.30;;
47161;SDS011;32921;53.256;8.198;2022-11-15T06:44:57;127.22;;;77.95;;
47161;SDS011;32921;53.256;8.198;2022-11-15T06:47:23;32.97;;;22.30;;
47161;SDS011;32921;53.256;8.198;2022-11-15T06:49:48;27.50;;;16.80;;
47161;SDS011;32921;53.256;8.198;2022-11-15T06:52:14;52.95;;;35.78;;
47161;SDS011;32921;53.256;8.198;2022-11-15T06:54:39;28.02;;;16.48;;
47161;SDS011;32921;53.256;8.198;2022-11-15T06:57:05;35.33;;;25.33;;
47161;SDS011;32921;53.256;8.198;2022-11-15T06:59:30;32.05;;;21.50;;
47161;SDS011;32921;53.256;8.198;2022-11-15T07:01:56;21.63;;;15.40;;
47161;SDS011;32921;53.256;8.198;2022-11-15T07:04:22;39.90;;;27.30;;
47161;SDS011;32921;53.256;8.198;2022-11-15T07:06:48;23.63;;;16.88;;
47161;SDS011;32921;53.256;8.198;2022-11-15T07:09:14;29.70;;;19.08;;
47161;SDS011;32921;53.256;8.198;2022-11-15T07:11:39;32.92;;;19.65;;
47161;SDS011;32921;53.256;8.198;2022-11-15T07:14:05;46.90;;;33.05;;
47161;SDS011;32921;53.256;8.198;2022-11-15T07:16:30;23.83;;;15.50;;
47161;SDS011;32921;53.256;8.198;2022-11-15T07:18:56;26.20;;;15.38;;
47161;SDS011;32921;53.256;8.198;2022-11-15T07:21:22;26.13;;;16.35;;
47161;SDS011;32921;53.256;8.198;2022-11-15T07:23:47;23.95;;;15.25;;
47161;SDS011;32921;53.256;8.198;2022-11-15T07:26:13;23.92;;;15.15;;
47161;SDS011;32921;53.256;8.198;2022-11-15T07:28:38;26.08;;;14.90;;
47161;SDS011;32921;53.256;8.198;2022-11-15T07:31:07;22.75;;;15.18;;
47161;SDS011;32921;53.256;8.198;2022-11-15T07:33:34;22.08;;;14.07;;
47161;SDS011;32921;53.256;8.198;2022-11-15T07:36:00;21.48;;;14.02;;
47161;SDS011;32921;53.256;8.198;2022-11-15T07:38:27;22.45;;;14.00;;
47161;SDS011;32921;53.256;8.198;2022-11-15T07:41:00;24.80;;;14.40;;
47161;SDS011;32921;53.256;8.198;2022-11-15T07:43:28;22.58;;;14.15;;
47161;SDS011;32921;53.256;8.198;2022-11-15T07:45:54;21.48;;;13.23;;
47161;SDS011;32921;53.256;8.198;2022-11-15T07:48:20;19.90;;;13.77;;
47161;SDS011;32921;53.256;8.198;2022-11-15T07:50:46;20.52;;;13.43;;
47161;SDS011;32921;53.256;8.198;2022-11-15T07:53:11;18.98;;;13.77;;
47161;SDS011;32921;53.256;8.198;2022-11-15T07:55:39;24.08;;;13.55;;
47161;SDS011;32921;53.256;8.198;2022-11-15T07:58:06;19.50;;;12.75;;
47161;SDS011;32921;53.256;8.198;2022-11-15T08:00:34;19.38;;;13.40;;
47161;SDS011;32921;53.256;8.198;2022-11-15T08:05:29;23.35;;;13.15;;
47161;SDS011;32921;53.256;8.198;2022-11-15T08:07:55;22.83;;;15.95;;
47161;SDS011;32921;53.256;8.198;2022-11-15T08:10:21;24.17;;;13.82;;
47161;SDS011;32921;53.256;8.198;2022-11-15T08:12:47;22.35;;;15.98;;
47161;SDS011;32921;53.256;8.198;2022-11-15T08:15:12;21.73;;;15.35;;
47161;SDS011;32921;53.256;8.198;2022-11-15T08:17:38;20.73;;;13.77;;
47161;SDS011;32921;53.256;8.198;2022-11-15T08:20:03;23.70;;;14.50;;
47161;SDS011;32921;53.256;8.198;2022-11-15T08:22:29;20.70;;;14.00;;
47161;SDS011;32921;53.256;8.198;2022-11-15T08:24:55;20.67;;;14.75;;
47161;SDS011;32921;53.256;8.198;2022-11-15T08:27:20;20.27;;;13.43;;
47161;SDS011;32921;53.256;8.198;2022-11-15T08:29:47;19.13;;;13.35;;
47161;SDS011;32921;53.256;8.198;2022-11-15T08:32:13;21.08;;;14.00;;
47161;SDS011;32921;53.256;8.198;2022-11-15T08:34:39;21.45;;;13.48;;
47161;SDS011;32921;53.256;8.198;2022-11-15T08:37:05;21.05;;;13.13;;
47161;SDS011;32921;53.256;8.198;2022-11-15T08:39:30;22.45;;;13.40;;
47161;SDS011;32921;53.256;8.198;2022-11-15T08:41:56;18.55;;;12.50;;
47161;SDS011;32921;53.256;8.198;2022-11-15T08:44:22;20.13;;;12.48;;
47161;SDS011;32921;53.256;8.198;2022-11-15T08:46:49;18.65;;;12.90;;
47161;SDS011;32921;53.256;8.198;2022-11-15T08:49:14;19.50;;;11.90;;
47161;SDS011;32921;53.256;8.198;2022-11-15T08:51:40;19.77;;;12.38;;
47161;SDS011;32921;53.256;8.198;2022-11-15T08:54:06;20.05;;;12.50;;
47161;SDS011;32921;53.256;8.198;2022-11-15T08:56:31;17.85;;;12.20;;
47161;SDS011;32921;53.256;8.198;2022-11-15T08:58:57;16.50;;;11.45;;
47161;SDS011;32921;53.256;8.198;2022-11-15T09:01:22;18.70;;;11.80;;
47161;SDS011;32921;53.256;8.198;2022-11-15T09:03:48;21.90;;;13.48;;
47161;SDS011;32921;53.256;8.198;2022-11-15T09:06:13;19.65;;;12.43;;
47161;SDS011;32921;53.256;8.198;2022-11-15T09:08:39;20.63;;;14.95;;
47161;SDS011;32921;53.256;8.198;2022-11-15T09:11:06;20.13;;;13.63;;
47161;SDS011;32921;53.256;8.198;2022-11-15T09:13:33;18.30;;;13.25;;
47161;SDS011;32921;53.256;8.198;2022-11-15T09:16:00;24.15;;;13.88;;
47161;SDS011;32921;53.256;8.198;2022-11-15T09:18:25;17.83;;;13.63;;
47161;SDS011;32921;53.256;8.198;2022-11-15T09:20:54;23.65;;;14.77;;
47161;SDS011;32921;53.256;8.198;2022-11-15T09:25:49;18.88;;;13.75;;
47161;SDS011;32921;53.256;8.198;2022-11-15T09:28:15;22.40;;;16.30;;
47161;SDS011;32921;53.256;8.198;2022-11-15T09:30:41;21.95;;;16.10;;
47161;SDS011;32921;53.256;8.198;2022-11-15T09:33:10;20.33;;;14.68;;
47161;SDS011;32921;53.256;8.198;2022-11-15T09:35:37;24.25;;;14.95;;
47161;SDS011;32921;53.256;8.198;2022-11-15T09:38:03;23.00;;;14.63;;
47161;SDS011;32921;53.256;8.198;2022-11-15T09:40:30;25.83;;;14.50;;
47161;SDS011;32921;53.256;8.198;2022-11-15T09:43:22;20.15;;;13.65;;
47161;SDS011;32921;53.256;8.198;2022-11-15T09:48:55;18.73;;;12.57;;
47161;SDS011;32921;53.256;8.198;2022-11-15T09:53:54;19.33;;;12.40;;
47161;SDS011;32921;53.256;8.198;2022-11-15T09:56:29;19.20;;;12.43;;
47161;SDS011;32921;53.256;8.198;2022-11-15T10:04:25;16.77;;;11.82;;
47161;SDS011;32921;53.256;8.198;2022-11-15T10:07:13;16.33;;;11.40;;
47161;SDS011;32921;53.256;8.198;2022-11-15T10:09:53;17.35;;;11.27;;
47161;SDS011;32921;53.256;8.198;2022-11-15T10:12:22;16.83;;;10.48;;
47161;SDS011;32921;53.256;8.198;2022-11-15T10:14:48;15.70;;;11.13;;
47161;SDS011;32921;53.256;8.198;2022-11-15T10:17:25;16.02;;;10.05;;
47161;SDS011;32921;53.256;8.198;2022-11-15T10:20:16;15.18;;;10.48;;
47161;SDS011;32921;53.256;8.198;2022-11-15T10:22:52;14.07;;;9.75;;
47161;SDS011;32921;53.256;8.198;2022-11-15T10:27:54;16.10;;;10.82;;
47161;SDS011;32921;53.256;8.198;2022-11-15T10:30:22;16.27;;;10.15;;
47161;SDS011;32921;53.256;8.198;2022-11-15T10:32:49;16.23;;;10.65;;
47161;SDS011;32921;53.256;8.198;2022-11-15T10:35:18;16.83;;;10.15;;
47161;SDS011;32921;53.256;8.198;2022-11-15T10:37:47;19.55;;;10.20;;
47161;SDS011;32921;53.256;8.198;2022-11-15T10:40:20;16.17;;;10.02;;
47161;SDS011;32921;53.256;8.198;2022-11-15T10:42:48;14.75;;;9.73;;
47161;SDS011;32921;53.256;8.198;2022-11-15T10:45:32;16.05;;;9.98;;
47161;SDS011;32921;53.256;8.198;2022-11-15T10:50:36;15.43;;;9.23;;
47161;SDS011;32921;53.256;8.198;2022-11-15T10:53:03;15.55;;;10.77;;
47161;SDS011;32921;53.256;8.198;2022-11-15T10:55:36;14.00;;;9.98;;
47161;SDS011;32921;53.256;8.198;2022-11-15T11:00:44;21.15;;;10.18;;
47161;SDS011;32921;53.256;8.198;2022-11-15T11:03:28;13.23;;;8.70;;
47161;SDS011;32921;53.256;8.198;2022-11-15T11:06:03;16.40;;;9.75;;
47161;SDS011;32921;53.256;8.198;2022-11-15T11:08:34;14.10;;;9.65;;
47161;SDS011;32921;53.256;8.198;2022-11-15T11:11:00;16.02;;;10.07;;
47161;SDS011;32921;53.256;8.198;2022-11-15T11:13:37;13.85;;;9.48;;
47161;SDS011;32921;53.256;8.198;2022-11-15T11:18:44;15.82;;;9.18;;
47161;SDS011;32921;53.256;8.198;2022-11-15T11:21:26;12.65;;;8.50;;
47161;SDS011;32921;53.256;8.198;2022-11-15T11:24:07;16.05;;;8.85;;
47161;SDS011;32921;53.256;8.198;2022-11-15T11:26:44;14.23;;;9.60;;
47161;SDS011;32921;53.256;8.198;2022-11-15T11:31:49;12.85;;;9.00;;
47161;SDS011;32921;53.256;8.198;2022-11-15T11:43:44;13.43;;;8.07;;
47161;SDS011;32921;53.256;8.198;2022-11-15T11:46:15;13.63;;;9.10;;
47161;SDS011;32921;53.256;8.198;2022-11-15T11:48:55;13.38;;;8.82;;
47161;SDS011;32921;53.256;8.198;2022-11-15T11:51:33;13.63;;;8.63;;
47161;SDS011;32921;53.256;8.198;2022-11-15T11:54:05;17.73;;;11.27;;
47161;SDS011;32921;53.256;8.198;2022-11-15T11:56:38;13.80;;;7.93;;
47161;SDS011;32921;53.256;8.198;2022-11-15T11:59:23;14.27;;;8.00;;
47161;SDS011;32921;53.256;8.198;2022-11-15T12:01:56;11.73;;;7.22;;
47161;SDS011;32921;53.256;8.198;2022-11-15T12:04:30;11.60;;;7.95;;
47161;SDS011;32921;53.256;8.198;2022-11-15T12:07:03;9.13;;;6.38;;
47161;SDS011;32921;53.256;8.198;2022-11-15T12:09:51;11.38;;;6.50;;
47161;SDS011;32921;53.256;8.198;2022-11-15T12:12:29;10.27;;;6.93;;
47161;SDS011;32921;53.256;8.198;2022-11-15T12:15:02;10.02;;;5.80;;
47161;SDS011;32921;53.256;8.198;2022-11-15T12:17:36;12.35;;;7.03;;
47161;SDS011;32921;53.256;8.198;2022-11-15T12:20:26;12.63;;;7.30;;
47161;SDS011;32921;53.256;8.198;2022-11-15T12:22:54;13.35;;;6.72;;
47161;SDS011;32921;53.256;8.198;2022-11-15T12:25:49;21.17;;;11.80;;
47161;SDS011;32921;53.256;8.198;2022-11-15T12:31:17;12.10;;;7.60;;
47161;SDS011;32921;53.256;8.198;2022-11-15T12:33:49;11.40;;;7.70;;
47161;SDS011;32921;53.256;8.198;2022-11-15T12:38:50;13.27;;;7.85;;
47161;SDS011;32921;53.256;8.198;2022-11-15T12:41:19;9.77;;;6.18;;
47161;SDS011;32921;53.256;8.198;2022-11-15T12:43:47;12.48;;;5.97;;
47161;SDS011;32921;53.256;8.198;2022-11-15T12:51:22;9.38;;;5.32;;
47161;SDS011;32921;53.256;8.198;2022-11-15T13:22:51;7.82;;;3.63;;
47161;SDS011;32921;53.256;8.198;2022-11-15T13:28:00;5.25;;;3.28;;
47161;SDS011;32921;53.256;8.198;2022-11-15T13:30:34;5.88;;;3.30;;
47161;SDS011;32921;53.256;8.198;2022-11-15T13:33:07;6.30;;;3.60;;
47161;SDS011;32921;53.256;8.198;2022-11-15T13:35:50;6.43;;;3.70;;
47161;SDS011;32921;53.256;8.198;2022-11-15T13:41:00;4.68;;;3.30;;
47161;SDS011;32921;53.256;8.198;2022-11-15T13:43:56;5.60;;;3.33;;
47161;SDS011;32921;53.256;8.198;2022-11-15T13:46:29;4.88;;;3.38;;
47161;SDS011;32921;53.256;8.198;2022-11-15T13:48:59;6.68;;;3.50;;
47161;SDS011;32921;53.256;8.198;2022-11-15T13:51:29;6.40;;;3.33;;
47161;SDS011;32921;53.256;8.198;2022-11-15T13:56:36;12.00;;;3.83;;
47161;SDS011;32921;53.256;8.198;2022-11-15T13:59:13;6.68;;;3.47;;
47161;SDS011;32921;53.256;8.198;2022-11-15T14:01:49;5.30;;;3.17;;
47161;SDS011;32921;53.256;8.198;2022-11-15T14:04:18;6.03;;;3.25;;
47161;SDS011;32921;53.256;8.198;2022-11-15T14:06:47;5.10;;;3.05;;
47161;SDS011;32921;53.256;8.198;2022-11-15T14:09:28;4.90;;;2.50;;
47161;SDS011;32921;53.256;8.198;2022-11-15T14:15:26;5.65;;;2.95;;
47161;SDS011;32921;53.256;8.198;2022-11-15T14:17:57;5.70;;;2.90;;
47161;SDS011;32921;53.256;8.198;2022-11-15T14:23:01;7.20;;;2.80;;
47161;SDS011;32921;53.256;8.198;2022-11-15T14:25:56;5.00;;;2.85;;
47161;SDS011;32921;53.256;8.198;2022-11-15T14:30:48;4.55;;;2.60;;
47161;SDS011;32921;53.256;8.198;2022-11-15T14:35:47;4.40;;;2.80;;
47161;SDS011;32921;53.256;8.198;2022-11-15T14:38:14;7.22;;;2.88;;
47161;SDS011;32921;53.256;8.198;2022-11-15T14:40:40;4.35;;;2.70;;
47161;SDS011;32921;53.256;8.198;2022-11-15T14:43:08;5.43;;;2.72;;
47161;SDS011;32921;53.256;8.198;2022-11-15T14:45:35;5.32;;;2.90;;
47161;SDS011;32921;53.256;8.198;2022-11-15T14:48:01;11.00;;;4.20;;
47161;SDS011;32921;53.256;8.198;2022-11-15T14:50:26;6.10;;;3.25;;
47161;SDS011;32921;53.256;8.198;2022-11-15T14:52:52;8.20;;;4.20;;
47161;SDS011;32921;53.256;8.198;2022-11-15T14:55:20;6.72;;;3.60;;
47161;SDS011;32921;53.256;8.198;2022-11-15T14:57:50;12.05;;;5.15;;
47161;SDS011;32921;53.256;8.198;2022-11-15T15:00:17;43.38;;;30.95;;
47161;SDS011;32921;53.256;8.198;2022-11-15T15:02:44;58.65;;;41.33;;
47161;SDS011;32921;53.256;8.198;2022-11-15T15:05:14;42.40;;;32.63;;
47161;SDS011;32921;53.256;8.198;2022-11-15T15:07:48;24.95;;;18.65;;
47161;SDS011;32921;53.256;8.198;2022-11-15T15:10:14;27.85;;;20.02;;
47161;SDS011;32921;53.256;8.198;2022-11-15T15:12:41;19.90;;;14.93;;
47161;SDS011;32921;53.256;8.198;2022-11-15T15:15:11;20.98;;;13.00;;
47161;SDS011;32921;53.256;8.198;2022-11-15T15:17:39;15.13;;;11.85;;
47161;SDS011;32921;53.256;8.198;2022-11-15T15:20:05;16.00;;;12.23;;
47161;SDS011;32921;53.256;8.198;2022-11-15T15:22:31;20.35;;;11.52;;
47161;SDS011;32921;53.256;8.198;2022-11-15T15:24:57;19.73;;;13.52;;
47161;SDS011;32921;53.256;8.198;2022-11-15T15:27:22;17.52;;;11.70;;
47161;SDS011;32921;53.256;8.198;2022-11-15T15:29:48;16.23;;;9.15;;
47161;SDS011;32921;53.256;8.198;2022-11-15T15:32:13;14.10;;;8.05;;
47161;SDS011;32921;53.256;8.198;2022-11-15T15:34:39;15.10;;;8.00;;
47161;SDS011;32921;53.256;8.198;2022-11-15T15:37:08;15.00;;;6.97;;
47161;SDS011;32921;53.256;8.198;2022-11-15T15:39:43;11.75;;;6.60;;
47161;SDS011;32921;53.256;8.198;2022-11-15T15:42:09;11.52;;;6.60;;
47161;SDS011;32921;53.256;8.198;2022-11-15T15:44:34;11.68;;;6.78;;
47161;SDS011;32921;53.256;8.198;2022-11-15T15:47:00;12.73;;;7.47;;
47161;SDS011;32921;53.256;8.198;2022-11-15T15:49:25;12.60;;;6.78;;
47161;SDS011;32921;53.256;8.198;2022-11-15T15:51:51;12.30;;;5.57;;
47161;SDS011;32921;53.256;8.198;2022-11-15T15:54:16;11.93;;;5.30;;
47161;SDS011;32921;53.256;8.198;2022-11-15T15:56:42;10.15;;;4.95;;
47161;SDS011;32921;53.256;8.198;2022-11-15T15:59:07;8.40;;;4.65;;
47161;SDS011;32921;53.256;8.198;2022-11-15T16:01:33;12.80;;;4.15;;
47161;SDS011;32921;53.256;8.198;2022-11-15T16:03:58;6.55;;;3.90;;
47161;SDS011;32921;53.256;8.198;2022-11-15T16:06:34;8.25;;;4.30;;
47161;SDS011;32921;53.256;8.198;2022-11-15T16:09:03;8.07;;;4.38;;
47161;SDS011;32921;53.256;8.198;2022-11-15T16:11:29;8.77;;;4.63;;
47161;SDS011;32921;53.256;8.198;2022-11-15T16:13:54;7.38;;;4.70;;
47161;SDS011;32921;53.256;8.198;2022-11-15T16:16:20;8.27;;;5.10;;
47161;SDS011;32921;53.256;8.198;2022-11-15T16:18:46;10.57;;;6.03;;
47161;SDS011;32921;53.256;8.198;2022-11-15T16:21:12;9.60;;;6.07;;
47161;SDS011;32921;53.256;8.198;2022-11-15T16:23:37;10.50;;;7.35;;
47161;SDS011;32921;53.256;8.198;2022-11-15T16:26:09;13.60;;;8.25;;
47161;SDS011;32921;53.256;8.198;2022-11-15T16:28:52;12.75;;;7.63;;
47161;SDS011;32921;53.256;8.198;2022-11-15T16:31:18;16.50;;;8.60;;
47161;SDS011;32921;53.256;8.198;2022-11-15T16:33:46;15.80;;;8.50;;
47161;SDS011;32921;53.256;8.198;2022-11-15T16:36:19;16.33;;;9.40;;
47161;SDS011;32921;53.256;8.198;2022-11-15T16:38:45;13.77;;;7.63;;
47161;SDS011;32921;53.256;8.198;2022-11-15T16:41:11;13.40;;;9.15;;